Time;durP1;ratioP1;P1;durP2;ratioP2;P2;SDS_P1;SDS_P2;PMS_P1;PMS_P2;Temp;Humidity;BMP_temperature;BMP_pressure;BME280_temperature;BME280_humidity;BME280_pressure;Samples;Min_cycle;Max_cycle;Signal;HPM_P1;HPM_P2
2021/12/22 00:00:18;;;;;;;25.50;17.58;;;-2.70;99.90;;;;;;5038085;28;20029;-77
2021/12/22 00:02:48;;;;;;;31.50;17.63;;;-2.70;99.90;;;;;;5044711;28;20504;-77
2021/12/22 00:05:27;;;;;;;31.63;18.95;;;-2.60;99.90;;;;;;5041477;28;20112;-76
2021/12/22 00:07:53;;;;;;;27.42;18.27;;;-2.40;99.90;;;;;;5041018;28;20025;-76
2021/12/22 00:10:21;;;;;;;25.67;18.23;;;-2.50;99.90;;;;;;5035528;28;20529;-75
2021/12/22 00:12:48;;;;;;;26.92;18.40;;;-2.50;99.90;;;;;;5040400;28;20033;-74
2021/12/22 00:15:14;;;;;;;24.30;17.00;;;-2.60;99.90;;;;;;5037831;28;20040;-74
2021/12/22 00:17:40;;;;;;;25.30;17.77;;;-2.70;99.90;;;;;;5037093;28;20017;-76
2021/12/22 00:20:08;;;;;;;25.30;16.70;;;-2.80;99.90;;;;;;5033471;28;20029;-76
2021/12/22 00:22:33;;;;;;;34.10;20.50;;;-2.70;99.90;;;;;;5034684;28;20506;-74
2021/12/22 00:24:59;;;;;;;28.20;18.58;;;-2.70;99.90;;;;;;5034303;28;20104;-74
2021/12/22 00:27:25;;;;;;;27.83;18.45;;;-2.80;99.90;;;;;;5038813;28;20029;-76
2021/12/22 00:29:52;;;;;;;31.02;18.73;;;-2.80;99.90;;;;;;5041828;28;20028;-76
2021/12/22 00:32:18;;;;;;;32.75;19.30;;;-2.80;99.90;;;;;;5040133;28;20037;-76
2021/12/22 00:34:51;;;;;;;32.08;19.25;;;-3.00;99.90;;;;;;5033038;28;20116;-77
2021/12/22 00:37:25;;;;;;;26.90;18.63;;;-2.90;99.90;;;;;;5035335;28;20032;-76
2021/12/22 00:39:52;;;;;;;24.17;17.80;;;-3.00;99.90;;;;;;5047801;28;20032;-75
2021/12/22 00:42:19;;;;;;;28.80;19.35;;;-3.00;99.90;;;;;;5044108;28;20029;-75
2021/12/22 00:44:49;;;;;;;28.52;18.35;;;-3.00;99.90;;;;;;5036561;28;20025;-76
2021/12/22 00:47:16;;;;;;;31.85;20.20;;;-3.10;99.90;;;;;;5032633;28;20017;-76
2021/12/22 00:49:42;;;;;;;30.23;19.30;;;-3.10;99.90;;;;;;5032679;28;20561;-76
2021/12/22 00:52:07;;;;;;;27.67;19.63;;;-3.10;99.90;;;;;;5042499;28;20108;-76
2021/12/22 00:54:33;;;;;;;27.10;18.67;;;-3.20;99.90;;;;;;5032569;28;20048;-76
2021/12/22 00:57:05;;;;;;;26.27;18.90;;;-3.20;99.90;;;;;;5033765;28;20036;-74
2021/12/22 00:59:35;;;;;;;27.15;19.13;;;-3.20;99.90;;;;;;5033918;28;20028;-74
2021/12/22 01:02:03;;;;;;;25.63;17.98;;;-3.10;99.90;;;;;;5032400;28;20429;-75
2021/12/22 01:04:28;;;;;;;27.40;18.75;;;-3.10;99.90;;;;;;5029207;28;20029;-74
2021/12/22 01:06:54;;;;;;;25.75;18.80;;;-3.10;99.90;;;;;;5031663;28;20097;-74
2021/12/22 01:09:20;;;;;;;31.83;20.77;;;-3.10;99.90;;;;;;5044288;28;20035;-75
2021/12/22 01:11:46;;;;;;;29.20;18.83;;;-3.10;99.90;;;;;;5039264;28;20489;-74
2021/12/22 01:14:12;;;;;;;25.00;18.67;;;-3.20;99.90;;;;;;5036204;28;20413;-73
2021/12/22 01:16:38;;;;;;;28.73;18.83;;;-3.20;99.90;;;;;;5033736;28;20028;-76
2021/12/22 01:19:10;;;;;;;30.30;19.58;;;-3.20;99.90;;;;;;5043735;28;20486;-76
2021/12/22 01:21:47;;;;;;;26.77;20.15;;;-3.20;99.90;;;;;;5042582;28;20053;-78
2021/12/22 01:24:30;;;;;;;25.58;17.27;;;-3.10;99.90;;;;;;5031978;28;20078;-77
2021/12/22 01:27:04;;;;;;;27.85;19.30;;;-3.20;99.90;;;;;;5031577;28;20029;-79
2021/12/22 01:29:35;;;;;;;26.15;18.48;;;-3.20;99.90;;;;;;5030691;28;20082;-81
2021/12/22 01:32:02;;;;;;;24.73;18.17;;;-3.20;99.90;;;;;;5035075;28;20026;-79
2021/12/22 01:34:28;;;;;;;26.60;17.52;;;-3.10;99.90;;;;;;5033450;28;20022;-79
2021/12/22 01:36:54;;;;;;;24.27;17.38;;;-3.10;99.90;;;;;;5032772;28;20393;-80
2021/12/22 01:39:19;;;;;;;25.50;17.98;;;-3.10;99.90;;;;;;5033554;28;20017;-79
2021/12/22 01:41:45;;;;;;;26.35;18.27;;;-3.10;99.90;;;;;;5034322;28;20026;-80
2021/12/22 01:44:13;;;;;;;30.67;19.70;;;-3.20;99.90;;;;;;5032741;28;20029;-79
2021/12/22 01:49:54;;;;;;;29.73;20.35;;;-3.20;99.90;;;;;;5033626;28;20032;-81
2021/12/22 01:52:21;;;;;;;27.15;19.13;;;-3.30;99.90;;;;;;5028700;28;20037;-79
2021/12/22 01:55:13;;;;;;;26.80;18.80;;;-3.20;99.90;;;;;;5033385;28;20021;-78
2021/12/22 01:57:48;;;;;;;29.48;17.52;;;-3.20;99.90;;;;;;5029772;28;20028;-78
2021/12/22 02:00:16;;;;;;;27.42;18.65;;;-3.20;99.90;;;;;;5030655;28;20060;-77
2021/12/22 02:02:42;;;;;;;29.55;19.00;;;-3.20;99.90;;;;;;5036853;28;20025;-79
2021/12/22 02:05:08;;;;;;;37.08;19.38;;;-3.20;99.90;;;;;;5047167;28;20033;-79
2021/12/22 02:07:33;;;;;;;29.70;18.88;;;-3.20;99.90;;;;;;5053710;28;20013;-79
2021/12/22 02:10:34;;;;;;;26.85;17.98;;;-3.30;99.90;;;;;;5054421;28;20027;-79
2021/12/22 02:12:48;;;;;;;31.15;18.92;;;-3.30;99.90;;;;;;5055230;28;20067;-79
2021/12/22 02:15:14;;;;;;;29.02;19.73;;;-3.40;99.90;;;;;;5055939;28;20037;-78
2021/12/22 02:17:40;;;;;;;27.90;19.58;;;-3.50;99.90;;;;;;5055896;28;20010;-79
2021/12/22 02:20:07;;;;;;;30.00;20.15;;;-3.40;99.90;;;;;;5053829;28;20016;-78
2021/12/22 02:22:34;;;;;;;29.25;20.17;;;-3.40;99.90;;;;;;5055484;28;20081;-79
2021/12/22 02:25:06;;;;;;;27.42;20.17;;;-3.50;99.90;;;;;;5055265;28;20036;-79
2021/12/22 02:27:38;;;;;;;28.48;19.83;;;-3.50;99.90;;;;;;5056063;28;20022;-80
2021/12/22 02:30:06;;;;;;;28.25;19.65;;;-3.50;99.90;;;;;;5051033;28;20048;-78
2021/12/22 02:35:45;;;;;;;24.17;16.77;;;-3.40;99.90;;;;;;5019767;28;20037;-78
2021/12/22 02:38:18;;;;;;;33.30;18.80;;;-3.50;99.90;;;;;;5037568;28;20032;-80
2021/12/22 02:40:47;;;;;;;29.90;19.83;;;-3.50;99.90;;;;;;5031024;28;20071;-79
2021/12/22 02:43:19;;;;;;;30.00;20.63;;;-3.50;99.90;;;;;;5034222;28;20390;-79
2021/12/22 02:45:46;;;;;;;32.10;20.00;;;-3.60;99.90;;;;;;5038391;28;20049;-77
2021/12/22 02:48:11;;;;;;;31.95;21.38;;;-3.60;99.90;;;;;;5049695;28;20136;-78
2021/12/22 02:50:37;;;;;;;31.80;22.58;;;-3.50;99.90;;;;;;5046833;28;20029;-77
2021/12/22 02:53:07;;;;;;;35.60;21.25;;;-3.50;99.90;;;;;;5048192;28;20037;-78
2021/12/22 02:58:13;;;;;;;27.65;20.70;;;-3.50;99.90;;;;;;5046644;28;20049;-78
2021/12/22 03:01:07;;;;;;;28.17;19.98;;;-3.60;99.90;;;;;;5047355;28;20024;-79
2021/12/22 03:03:55;;;;;;;36.00;21.40;;;-3.60;99.90;;;;;;5036778;28;20017;-78
2021/12/22 03:06:38;;;;;;;29.42;19.63;;;-3.60;99.90;;;;;;5039456;28;20021;-78
2021/12/22 03:09:20;;;;;;;29.77;19.10;;;-3.70;99.90;;;;;;5032971;28;20033;-79
2021/12/22 03:11:47;;;;;;;29.80;21.02;;;-3.60;99.90;;;;;;5026013;28;20036;-78
2021/12/22 03:14:14;;;;;;;30.92;20.67;;;-3.50;99.90;;;;;;5032175;28;20045;-80
2021/12/22 03:16:43;;;;;;;31.33;20.67;;;-3.50;99.90;;;;;;5033646;28;20032;-79
2021/12/22 03:19:14;;;;;;;29.45;20.50;;;-3.30;99.90;;;;;;5031030;28;20468;-78
2021/12/22 03:21:42;;;;;;;30.15;20.65;;;-3.30;99.90;;;;;;5033771;28;20080;-79
2021/12/22 03:24:08;;;;;;;32.60;21.83;;;-3.30;99.90;;;;;;5032759;28;20031;-78
2021/12/22 03:26:41;;;;;;;30.08;19.92;;;-3.40;99.90;;;;;;5034797;28;20429;-79
2021/12/22 03:29:06;;;;;;;29.52;20.92;;;-3.40;99.90;;;;;;5036406;28;20112;-79
2021/12/22 03:31:32;;;;;;;27.65;20.20;;;-3.40;99.90;;;;;;5033985;28;20067;-79
2021/12/22 03:33:58;;;;;;;29.13;20.15;;;-3.40;99.90;;;;;;5033362;28;20032;-79
2021/12/22 03:36:24;;;;;;;34.78;21.13;;;-3.50;99.90;;;;;;5026342;28;20032;-79
2021/12/22 03:38:49;;;;;;;31.80;22.05;;;-3.40;99.90;;;;;;5032233;28;20030;-78
2021/12/22 03:41:15;;;;;;;31.00;20.35;;;-3.40;99.90;;;;;;5031493;28;20132;-79
2021/12/22 03:43:40;;;;;;;26.00;18.95;;;-3.40;99.90;;;;;;5033365;28;20040;-79
2021/12/22 03:46:06;;;;;;;27.92;19.27;;;-3.30;99.90;;;;;;5036010;28;20358;-79
2021/12/22 03:48:32;;;;;;;37.10;22.60;;;-3.30;99.90;;;;;;5036239;28;20393;-78
2021/12/22 03:50:58;;;;;;;29.58;20.23;;;-3.20;99.90;;;;;;5033543;28;20440;-78
2021/12/22 03:53:23;;;;;;;31.52;19.92;;;-3.20;99.90;;;;;;5036349;28;20025;-79
2021/12/22 03:55:49;;;;;;;36.08;20.42;;;-3.30;99.90;;;;;;5036733;28;20021;-78
2021/12/22 03:58:15;;;;;;;29.40;20.40;;;-3.30;99.90;;;;;;5035080;28;20030;-80
2021/12/22 04:00:42;;;;;;;29.67;20.13;;;-3.40;99.90;;;;;;5037486;28;20024;-79
2021/12/22 04:03:17;;;;;;;30.20;20.73;;;-3.50;99.90;;;;;;5035492;28;20107;-79
2021/12/22 04:05:44;;;;;;;28.95;20.42;;;-3.60;99.90;;;;;;5037785;28;20029;-79
2021/12/22 04:08:11;;;;;;;32.10;20.85;;;-3.70;99.90;;;;;;5035859;28;20026;-79
2021/12/22 04:10:37;;;;;;;30.25;19.15;;;-3.80;99.90;;;;;;5036058;28;20389;-79
2021/12/22 04:13:04;;;;;;;31.65;20.42;;;-3.80;99.90;;;;;;5036789;28;20117;-80
2021/12/22 04:15:29;;;;;;;29.42;19.85;;;-3.80;99.90;;;;;;5055304;28;20036;-79
2021/12/22 04:17:55;;;;;;;31.00;21.40;;;-3.80;99.90;;;;;;5075335;28;20025;-79
2021/12/22 04:20:22;;;;;;;28.65;19.85;;;-3.80;99.90;;;;;;5055730;28;20033;-80
2021/12/22 04:22:47;;;;;;;24.83;19.58;;;-3.90;99.90;;;;;;5067722;28;20098;-79
2021/12/22 04:25:20;;;;;;;28.13;19.92;;;-3.90;99.90;;;;;;5062709;28;20025;-80
2021/12/22 04:27:50;;;;;;;28.23;20.05;;;-3.90;99.90;;;;;;5040049;28;20036;-79
2021/12/22 04:30:16;;;;;;;26.63;19.73;;;-3.90;99.90;;;;;;5038029;28;20563;-79
2021/12/22 04:32:42;;;;;;;34.95;20.10;;;-3.90;99.90;;;;;;5035087;28;20038;-80
2021/12/22 04:35:08;;;;;;;33.15;21.00;;;-3.80;99.90;;;;;;5037472;28;20036;-79
2021/12/22 04:37:33;;;;;;;31.05;20.92;;;-3.80;99.90;;;;;;5037983;28;20029;-79
2021/12/22 04:39:59;;;;;;;31.33;20.25;;;-3.80;99.90;;;;;;5033518;28;20025;-80
2021/12/22 04:42:24;;;;;;;29.58;19.83;;;-3.90;99.90;;;;;;5034909;28;20033;-80
2021/12/22 04:44:53;;;;;;;27.13;19.42;;;-3.90;99.90;;;;;;5032893;28;20025;-80
2021/12/22 04:47:19;;;;;;;33.25;21.15;;;-3.90;99.90;;;;;;5033301;28;20029;-79
2021/12/22 04:49:45;;;;;;;29.90;21.13;;;-3.90;99.90;;;;;;5028566;28;20041;-80
2021/12/22 04:52:15;;;;;;;31.38;20.17;;;-3.90;99.90;;;;;;5033864;28;20025;-80
2021/12/22 04:54:50;;;;;;;31.05;20.88;;;-4.00;99.90;;;;;;5034494;28;20041;-80
2021/12/22 04:57:15;;;;;;;28.50;19.08;;;-4.00;99.90;;;;;;5033808;28;20497;-80
2021/12/22 04:59:41;;;;;;;31.02;21.08;;;-4.00;99.90;;;;;;5034834;28;20028;-78
2021/12/22 05:02:06;;;;;;;30.88;22.38;;;-4.00;99.90;;;;;;5035186;28;20030;-79
2021/12/22 05:04:32;;;;;;;31.20;19.80;;;-4.00;99.90;;;;;;5033367;28;20100;-79
2021/12/22 05:06:57;;;;;;;30.02;20.23;;;-4.00;99.90;;;;;;5035033;28;20397;-79
2021/12/22 05:09:23;;;;;;;28.52;20.08;;;-4.00;99.90;;;;;;5035440;28;20351;-78
2021/12/22 05:11:50;;;;;;;30.15;20.42;;;-4.00;99.90;;;;;;5029501;28;20473;-79
2021/12/22 05:14:16;;;;;;;29.63;20.25;;;-4.00;99.90;;;;;;5037303;28;20032;-79
2021/12/22 05:16:46;;;;;;;31.80;21.27;;;-4.00;99.90;;;;;;5044437;28;20112;-78
2021/12/22 05:19:15;;;;;;;30.37;21.23;;;-4.10;99.90;;;;;;5050330;28;20454;-79
2021/12/22 05:21:42;;;;;;;32.20;20.95;;;-4.20;99.90;;;;;;5054713;28;20268;-77
2021/12/22 05:24:08;;;;;;;31.98;21.10;;;-4.10;99.90;;;;;;5040941;28;20040;-79
2021/12/22 05:26:34;;;;;;;32.50;22.00;;;-4.20;99.90;;;;;;5038943;28;20021;-78
2021/12/22 05:29:00;;;;;;;29.27;20.48;;;-4.10;99.90;;;;;;5036883;28;20481;-80
2021/12/22 05:31:27;;;;;;;31.90;22.05;;;-4.10;99.90;;;;;;5036096;28;20029;-79
2021/12/22 05:33:52;;;;;;;31.17;20.30;;;-4.00;99.90;;;;;;5034284;28;20710;-79
2021/12/22 05:36:18;;;;;;;31.75;20.38;;;-4.10;99.90;;;;;;5031093;28;20037;-79
2021/12/22 05:38:44;;;;;;;31.27;21.45;;;-4.10;99.90;;;;;;5032239;28;20104;-80
2021/12/22 05:41:09;;;;;;;35.55;21.10;;;-4.10;99.90;;;;;;5033592;28;20025;-80
2021/12/22 05:43:35;;;;;;;38.28;22.10;;;-4.20;99.90;;;;;;5035554;28;20098;-79
2021/12/22 05:46:01;;;;;;;32.92;21.70;;;-4.20;99.90;;;;;;5034942;28;20452;-79
2021/12/22 05:48:27;;;;;;;31.33;20.92;;;-4.20;99.90;;;;;;5036048;28;20022;-79
2021/12/22 05:50:57;;;;;;;33.90;22.10;;;-4.30;99.90;;;;;;5033585;28;20543;-80
2021/12/22 05:53:24;;;;;;;33.40;21.00;;;-4.30;99.90;;;;;;5035336;28;20481;-80
2021/12/22 05:55:49;;;;;;;31.65;20.05;;;-4.20;99.90;;;;;;5034384;28;20359;-79
2021/12/22 05:58:15;;;;;;;34.97;21.23;;;-4.20;99.90;;;;;;5034684;28;20053;-80
2021/12/22 06:00:41;;;;;;;33.88;21.42;;;-4.30;99.90;;;;;;5035085;28;20413;-81
2021/12/22 06:03:07;;;;;;;35.92;21.38;;;-4.20;99.90;;;;;;5036135;28;20029;-79
2021/12/22 06:05:33;;;;;;;31.30;20.80;;;-4.20;99.90;;;;;;5034019;28;20017;-79
2021/12/22 06:07:58;;;;;;;31.95;21.02;;;-4.20;99.90;;;;;;5034540;28;20101;-80
2021/12/22 06:10:24;;;;;;;27.40;20.65;;;-4.20;99.90;;;;;;5035654;28;20028;-79
2021/12/22 06:12:49;;;;;;;30.88;20.63;;;-4.20;99.90;;;;;;5035138;28;20485;-80
2021/12/22 06:15:15;;;;;;;35.95;22.38;;;-4.20;99.90;;;;;;5033991;28;20524;-80
2021/12/22 06:17:40;;;;;;;34.45;21.33;;;-4.20;99.90;;;;;;5032511;28;20032;-79
2021/12/22 06:20:07;;;;;;;35.42;20.85;;;-4.10;99.90;;;;;;5032269;28;20068;-80
2021/12/22 06:22:35;;;;;;;26.98;19.75;;;-4.00;99.90;;;;;;5034953;28;20465;-79
2021/12/22 06:25:00;;;;;;;33.53;20.88;;;-4.00;99.90;;;;;;5034451;28;20381;-80
2021/12/22 06:27:26;;;;;;;32.88;20.33;;;-4.10;99.90;;;;;;5032075;28;20021;-81
2021/12/22 06:29:52;;;;;;;27.70;20.17;;;-4.00;99.90;;;;;;5029812;28;20026;-80
2021/12/22 06:32:17;;;;;;;29.05;21.15;;;-3.80;99.90;;;;;;5033392;28;20040;-79
2021/12/22 06:34:43;;;;;;;31.05;19.15;;;-3.80;99.90;;;;;;5034489;28;20448;-78
2021/12/22 06:37:09;;;;;;;32.90;20.58;;;-3.70;99.90;;;;;;5033357;28;20478;-78
2021/12/22 06:39:34;;;;;;;37.40;21.65;;;-3.70;99.90;;;;;;5032721;28;20500;-80
2021/12/22 06:42:00;;;;;;;32.80;21.33;;;-3.60;99.90;;;;;;5034052;28;20401;-80
2021/12/22 06:44:26;;;;;;;40.88;21.80;;;-3.70;99.90;;;;;;5033466;28;20057;-79
2021/12/22 06:46:52;;;;;;;33.45;21.55;;;-3.80;99.90;;;;;;5035894;28;20057;-80
2021/12/22 06:49:19;;;;;;;31.83;20.15;;;-3.90;99.90;;;;;;5034194;28;20029;-79
2021/12/22 06:51:44;;;;;;;34.85;20.73;;;-4.10;99.90;;;;;;5035094;28;20032;-80
2021/12/22 06:54:10;;;;;;;31.42;19.63;;;-4.20;99.90;;;;;;5034886;28;20507;-80
2021/12/22 06:56:38;;;;;;;27.77;19.75;;;-4.10;99.90;;;;;;5034267;28;20036;-80
2021/12/22 06:59:03;;;;;;;36.03;21.08;;;-4.20;99.90;;;;;;5034314;28;20444;-80
2021/12/22 07:01:32;;;;;;;38.63;21.30;;;-4.30;99.90;;;;;;5034677;28;20064;-80
2021/12/22 07:03:58;;;;;;;41.50;22.38;;;-4.30;99.90;;;;;;5030726;28;20022;-81
2021/12/22 07:06:23;;;;;;;37.78;22.30;;;-4.40;99.90;;;;;;5034009;28;20091;-81
2021/12/22 07:08:49;;;;;;;35.08;21.52;;;-4.30;99.90;;;;;;5033525;28;20056;-79
2021/12/22 07:11:14;;;;;;;34.53;21.75;;;-4.10;99.90;;;;;;5038525;28;20026;-79
2021/12/22 07:13:40;;;;;;;32.15;21.02;;;-4.10;99.90;;;;;;5043003;28;20030;-78
2021/12/22 07:16:06;;;;;;;34.95;19.98;;;-4.20;99.90;;;;;;5034613;28;20029;-81
2021/12/22 07:18:32;;;;;;;33.60;19.58;;;-4.20;99.90;;;;;;5033061;28;20406;-78
2021/12/22 07:20:59;;;;;;;30.67;20.85;;;-4.10;99.90;;;;;;5031045;28;20029;-79
2021/12/22 07:23:24;;;;;;;30.05;19.05;;;-4.00;99.90;;;;;;5036627;28;20053;-83
2021/12/22 07:25:50;;;;;;;33.80;21.73;;;-4.00;99.90;;;;;;5037946;28;20013;-79
2021/12/22 07:28:15;;;;;;;32.90;20.10;;;-4.10;99.90;;;;;;5038641;28;20057;-79
2021/12/22 07:30:41;;;;;;;34.72;21.27;;;-4.10;99.90;;;;;;5038583;28;20615;-79
2021/12/22 07:33:07;;;;;;;35.50;22.30;;;-4.20;99.90;;;;;;5049930;28;20357;-79
2021/12/22 07:35:38;;;;;;;30.58;22.00;;;-4.10;99.90;;;;;;5051222;28;20032;-79
2021/12/22 07:38:31;;;;;;;32.22;19.52;;;-4.00;99.90;;;;;;5041638;28;20035;-81
2021/12/22 07:40:58;;;;;;;29.63;20.58;;;-4.00;99.90;;;;;;5038515;28;20025;-79
2021/12/22 07:43:26;;;;;;;37.08;21.45;;;-3.90;99.90;;;;;;5034735;28;20025;-80
2021/12/22 07:45:52;;;;;;;32.90;19.98;;;-3.80;99.90;;;;;;5037746;28;20020;-79
2021/12/22 07:48:18;;;;;;;37.55;21.85;;;-3.90;99.90;;;;;;5037861;28;20030;-80
2021/12/22 07:50:44;;;;;;;33.65;21.60;;;-3.90;99.90;;;;;;5036831;28;20025;-80
2021/12/22 07:53:09;;;;;;;38.83;22.63;;;-3.90;99.90;;;;;;5038033;28;20541;-79
2021/12/22 07:55:35;;;;;;;36.85;21.27;;;-3.80;99.90;;;;;;5036089;28;20037;-80
2021/12/22 07:58:01;;;;;;;43.47;22.60;;;-3.70;99.90;;;;;;5037993;28;20029;-81
2021/12/22 08:00:27;;;;;;;28.95;19.42;;;-3.40;99.90;;;;;;5035334;28;20432;-80
2021/12/22 08:02:53;;;;;;;32.70;20.60;;;-3.40;99.90;;;;;;5035018;28;20027;-79
2021/12/22 08:05:19;;;;;;;32.10;18.60;;;-3.30;99.90;;;;;;5036405;28;20112;-79
2021/12/22 08:07:44;;;;;;;29.65;20.48;;;-3.20;99.90;;;;;;5036075;28;20100;-79
2021/12/22 08:10:10;;;;;;;34.42;21.88;;;-3.20;99.90;;;;;;5036673;28;20029;-80
2021/12/22 08:12:36;;;;;;;29.77;20.33;;;-3.20;99.90;;;;;;5037510;28;20041;-79
2021/12/22 08:15:02;;;;;;;30.20;21.77;;;-3.30;99.90;;;;;;5056337;28;20040;-80
2021/12/22 08:17:29;;;;;;;38.08;22.00;;;-3.40;99.90;;;;;;5055396;28;20030;-79
2021/12/22 08:19:55;;;;;;;31.17;21.00;;;-3.40;99.90;;;;;;5057587;28;20029;-81
2021/12/22 08:22:21;;;;;;;30.58;20.67;;;-3.40;99.90;;;;;;5044545;28;20040;-79
2021/12/22 08:24:46;;;;;;;31.90;19.45;;;-3.20;99.90;;;;;;5039064;28;20048;-79
2021/12/22 08:27:12;;;;;;;30.80;20.63;;;-3.20;99.90;;;;;;5038178;28;20041;-79
2021/12/22 08:29:42;;;;;;;31.08;21.67;;;-3.20;99.90;;;;;;5037410;28;20032;-80
2021/12/22 08:32:08;;;;;;;31.00;20.60;;;-3.20;99.90;;;;;;5035015;28;20417;-80
2021/12/22 08:34:37;;;;;;;32.47;21.35;;;-3.20;99.90;;;;;;5037185;28;20739;-80
2021/12/22 08:39:52;;;;;;;31.02;20.95;;;-3.20;99.90;;;;;;5024292;28;20041;-79
2021/12/22 08:42:19;;;;;;;35.35;21.00;;;-3.10;99.90;;;;;;5035905;28;20033;-79
2021/12/22 08:44:45;;;;;;;30.67;20.40;;;-3.00;99.90;;;;;;5036674;28;20488;-79
2021/12/22 08:47:10;;;;;;;26.95;19.60;;;-3.00;99.90;;;;;;5035268;28;20034;-78
2021/12/22 08:49:36;;;;;;;33.58;22.70;;;-2.90;99.90;;;;;;5036361;28;20489;-79
2021/12/22 08:52:03;;;;;;;31.90;20.42;;;-2.90;99.90;;;;;;5035840;28;20033;-79
2021/12/22 08:54:29;;;;;;;35.00;22.38;;;-2.80;99.90;;;;;;5033690;28;20029;-78
2021/12/22 08:56:55;;;;;;;31.33;20.52;;;-2.80;99.90;;;;;;5036315;28;20025;-79
2021/12/22 08:59:22;;;;;;;32.90;21.38;;;-2.80;99.90;;;;;;5034425;28;20028;-77
2021/12/22 09:01:49;;;;;;;31.38;22.88;;;-2.80;99.90;;;;;;5033076;28;20053;-80
2021/12/22 09:04:14;;;;;;;34.28;22.10;;;-2.70;99.90;;;;;;5034666;28;20056;-80
2021/12/22 09:06:40;;;;;;;32.78;21.20;;;-2.60;99.90;;;;;;5035843;28;20026;-79
2021/12/22 09:09:10;;;;;;;26.90;19.95;;;-2.50;99.90;;;;;;5036116;28;20495;-79
2021/12/22 09:11:37;;;;;;;35.72;21.80;;;-2.40;99.90;;;;;;5035781;28;20028;-78
2021/12/22 09:14:04;;;;;;;37.67;21.95;;;-2.50;99.90;;;;;;5034591;28;20508;-79
2021/12/22 09:16:30;;;;;;;29.35;20.27;;;-2.50;99.90;;;;;;5037199;28;20078;-80
2021/12/22 09:18:56;;;;;;;32.65;21.58;;;-2.30;99.90;;;;;;5035458;28;20115;-78
2021/12/22 09:21:22;;;;;;;33.10;20.30;;;-2.30;99.90;;;;;;5035298;28;20037;-79
2021/12/22 09:23:48;;;;;;;33.67;21.67;;;-2.10;99.90;;;;;;5032905;28;20024;-78
2021/12/22 09:26:14;;;;;;;36.47;21.98;;;-1.80;99.90;;;;;;5033528;28;20022;-79
2021/12/22 09:28:40;;;;;;;28.58;19.70;;;-1.70;99.90;;;;;;5034977;28;20029;-80
2021/12/22 09:31:06;;;;;;;30.70;20.92;;;-1.60;99.90;;;;;;5035575;28;20080;-80
2021/12/22 09:33:32;;;;;;;40.33;21.85;;;-1.60;99.90;;;;;;5036112;28;20049;-79
2021/12/22 09:35:59;;;;;;;28.20;21.60;;;-1.50;99.90;;;;;;5033086;28;20396;-77
2021/12/22 09:38:25;;;;;;;36.70;20.70;;;-1.40;99.90;;;;;;5034221;28;20342;-80
2021/12/22 09:40:51;;;;;;;32.72;20.77;;;-1.30;99.90;;;;;;5035184;28;20030;-77
2021/12/22 09:43:16;;;;;;;28.23;19.60;;;-1.20;99.90;;;;;;5034174;28;20420;-79
2021/12/22 09:45:46;;;;;;;40.25;21.05;;;-1.10;99.90;;;;;;5035380;28;20017;-79
2021/12/22 09:50:50;;;;;;;31.85;20.33;;;-1.00;99.90;;;;;;5035869;28;20032;-79
2021/12/22 09:53:23;;;;;;;31.40;20.80;;;-1.00;99.90;;;;;;5035507;28;20401;-79
2021/12/22 09:55:49;;;;;;;28.60;20.38;;;-0.90;99.90;;;;;;5035113;28;20504;-79
2021/12/22 09:58:15;;;;;;;33.38;21.40;;;-0.90;99.90;;;;;;5035118;28;20137;-80
2021/12/22 10:00:42;;;;;;;36.45;21.60;;;-0.90;99.90;;;;;;5035114;28;20030;-80
2021/12/22 10:03:09;;;;;;;26.42;19.02;;;-0.80;99.90;;;;;;5034308;28;20021;-78
2021/12/22 10:05:36;;;;;;;31.42;19.60;;;-0.80;99.90;;;;;;5036488;28;20101;-79
2021/12/22 10:08:14;;;;;;;30.35;20.92;;;-0.80;99.90;;;;;;5034240;28;20028;-78
2021/12/22 10:10:48;;;;;;;30.48;20.98;;;-0.70;99.90;;;;;;5031097;28;20021;-80
2021/12/22 10:13:16;;;;;;;27.85;19.75;;;-0.50;99.90;;;;;;5035954;28;20469;-80
2021/12/22 10:15:43;;;;;;;25.65;19.25;;;-0.50;99.90;;;;;;5034078;28;20026;-80
2021/12/22 10:18:17;;;;;;;27.23;19.98;;;-0.50;99.90;;;;;;5034816;28;20033;-80
2021/12/22 10:20:45;;;;;;;25.20;18.65;;;-0.30;99.90;;;;;;5039594;28;20474;-79
2021/12/22 10:23:19;;;;;;;25.88;20.45;;;-0.30;99.90;;;;;;5034359;28;20055;-80
2021/12/22 10:25:59;;;;;;;29.70;21.15;;;-0.40;99.90;;;;;;5033703;28;20021;-77
2021/12/22 10:28:28;;;;;;;25.98;18.65;;;-0.10;99.90;;;;;;5034843;28;20021;-78
2021/12/22 10:31:01;;;;;;;34.05;20.25;;;0.00;99.90;;;;;;5039096;28;20433;-79
2021/12/22 10:33:31;;;;;;;27.73;19.95;;;0.10;99.90;;;;;;5039177;28;20012;-79
2021/12/22 10:36:00;;;;;;;39.50;22.13;;;0.10;99.90;;;;;;5061217;28;20073;-81
2021/12/22 10:38:30;;;;;;;34.33;20.83;;;0.10;99.90;;;;;;5051630;28;20044;-80
2021/12/22 10:41:03;;;;;;;26.00;19.10;;;0.20;99.90;;;;;;5061782;28;20043;-81
2021/12/22 10:43:32;;;;;;;28.17;20.10;;;0.30;99.90;;;;;;5042681;28;20033;-79
2021/12/22 10:46:03;;;;;;;26.83;18.60;;;0.50;99.90;;;;;;5035917;28;20163;-79
2021/12/22 10:51:27;;;;;;;28.15;17.92;;;0.60;99.90;;;;;;5034939;28;20091;-78
2021/12/22 10:53:53;;;;;;;30.88;18.95;;;0.40;99.90;;;;;;5033062;28;20580;-80
2021/12/22 10:56:28;;;;;;;22.40;17.70;;;0.50;99.90;;;;;;5033610;28;20076;-81
2021/12/22 10:59:15;;;;;;;23.98;17.77;;;0.40;99.90;;;;;;5050523;28;20033;-79
2021/12/22 11:01:53;;;;;;;24.67;17.52;;;0.30;99.90;;;;;;5034107;28;20026;-78
2021/12/22 11:04:25;;;;;;;22.13;16.55;;;0.30;99.90;;;;;;5031677;28;20026;-78
2021/12/22 11:06:53;;;;;;;22.35;16.42;;;0.40;99.90;;;;;;5032372;28;20021;-79
2021/12/22 11:09:21;;;;;;;23.27;16.48;;;0.40;99.90;;;;;;5034065;28;20033;-78
2021/12/22 11:11:57;;;;;;;24.15;16.65;;;0.50;99.90;;;;;;5038806;28;20025;-77
2021/12/22 11:14:29;;;;;;;24.25;16.85;;;0.70;99.90;;;;;;5050835;28;20040;-77
2021/12/22 11:17:05;;;;;;;23.38;15.57;;;0.90;99.90;;;;;;5043431;28;20044;-78
2021/12/22 11:20:04;;;;;;;17.38;14.10;;;1.20;99.90;;;;;;5041268;28;20085;-78
2021/12/22 11:23:04;;;;;;;18.30;15.05;;;1.30;99.90;;;;;;5034883;28;20026;-79
2021/12/22 11:25:31;;;;;;;20.35;15.40;;;1.20;99.90;;;;;;5037459;28;20021;-77
2021/12/22 11:27:59;;;;;;;19.42;14.63;;;1.40;99.90;;;;;;5029395;28;20038;-77
2021/12/22 11:30:27;;;;;;;22.50;16.63;;;1.40;99.90;;;;;;5042644;28;20520;-76
2021/12/22 11:32:54;;;;;;;19.20;16.67;;;1.50;99.90;;;;;;5019836;28;20136;-75
2021/12/22 11:35:21;;;;;;;22.65;17.58;;;1.40;99.90;;;;;;5026115;28;20030;-75
2021/12/22 11:37:46;;;;;;;21.80;15.63;;;1.40;99.90;;;;;;5028657;28;20040;-76
2021/12/22 11:40:14;;;;;;;24.92;16.27;;;1.50;99.90;;;;;;5028440;28;20444;-76
2021/12/22 11:42:40;;;;;;;20.45;15.38;;;1.60;99.90;;;;;;5028548;28;20018;-75
2021/12/22 11:45:15;;;;;;;22.58;16.33;;;1.60;99.90;;;;;;5030516;28;20024;-76
2021/12/22 11:47:44;;;;;;;23.95;15.85;;;1.60;99.90;;;;;;5029515;28;20018;-75
2021/12/22 11:50:26;;;;;;;20.58;15.63;;;1.60;99.90;;;;;;5030360;28;20033;-75
2021/12/22 11:53:08;;;;;;;20.30;16.05;;;1.60;99.90;;;;;;5030758;28;20021;-75
2021/12/22 11:55:42;;;;;;;22.05;15.30;;;1.60;99.90;;;;;;5023566;28;20067;-75
2021/12/22 11:58:15;;;;;;;26.17;17.33;;;1.60;99.90;;;;;;5030981;28;20485;-76
2021/12/22 12:00:50;;;;;;;22.02;15.32;;;1.50;99.90;;;;;;5030572;28;20021;-75
2021/12/22 12:03:21;;;;;;;20.30;15.77;;;1.50;99.90;;;;;;5030482;28;20028;-76
2021/12/22 12:06:16;;;;;;;23.33;16.08;;;1.60;99.90;;;;;;5031053;28;20018;-74
2021/12/22 12:08:49;;;;;;;20.67;16.33;;;1.60;99.90;;;;;;5031356;28;20116;-76
2021/12/22 12:14:33;;;;;;;22.08;15.90;;;1.70;99.90;;;;;;5031265;28;20112;-74
2021/12/22 12:23:32;;;;;;;21.00;15.88;;;1.70;99.90;;;;;;5030719;28;20419;-75
2021/12/22 12:26:04;;;;;;;22.88;15.98;;;1.80;99.90;;;;;;5031618;28;20032;-76
2021/12/22 12:28:31;;;;;;;21.80;16.52;;;2.00;99.90;;;;;;5031306;28;20017;-74
2021/12/22 12:31:00;;;;;;;25.42;16.67;;;2.00;99.90;;;;;;5031172;28;20030;-76
2021/12/22 12:33:27;;;;;;;20.35;16.90;;;2.00;99.90;;;;;;5033703;28;20022;-75
2021/12/22 12:36:08;;;;;;;23.05;17.52;;;2.00;99.90;;;;;;5034085;28;20037;-74
2021/12/22 12:38:39;;;;;;;24.55;15.63;;;2.00;99.90;;;;;;5032480;28;20494;-74
2021/12/22 12:41:14;;;;;;;23.20;16.25;;;1.90;99.90;;;;;;5033691;28;20397;-74
2021/12/22 12:49:16;;;;;;;20.35;15.30;;;1.70;99.90;;;;;;5033019;28;20384;-75
2021/12/22 12:51:50;;;;;;;22.42;15.35;;;1.70;99.90;;;;;;5030620;28;20025;-75
2021/12/22 12:54:16;;;;;;;25.52;16.42;;;1.70;99.90;;;;;;5034430;28;20022;-75
2021/12/22 12:56:47;;;;;;;19.55;14.55;;;1.60;99.90;;;;;;5032481;28;20024;-75
2021/12/22 12:59:14;;;;;;;;;;;1.80;99.90;;;;;;5033575;28;20091;-75
2021/12/22 13:04:32;;;;;;;21.38;14.80;;;1.60;99.90;;;;;;5032312;28;20129;-74
2021/12/22 13:07:02;;;;;;;22.83;15.63;;;1.70;99.90;;;;;;5029521;28;20481;-75
2021/12/22 13:09:34;;;;;;;22.73;16.55;;;2.00;99.90;;;;;;5026228;28;20541;-74